sensor_id;sensor_type;location;lat;lon;timestamp;temperature;humidity
24162;DHT22;12318;51.262;7.066;2023-04-25T00:02:10;5.80;99.90
24162;DHT22;12318;51.262;7.066;2023-04-25T00:04:35;5.90;99.90
24162;DHT22;12318;51.262;7.066;2023-04-25T00:07:06;5.90;99.90
24162;DHT22;12318;51.262;7.066;2023-04-25T00:09:32;6.00;99.90
24162;DHT22;12318;51.262;7.066;2023-04-25T00:11:58;6.00;99.90
24162;DHT22;12318;51.262;7.066;2023-04-25T00:14:24;6.10;99.90
24162;DHT22;12318;51.262;7.066;2023-04-25T00:16:50;6.10;99.90
24162;DHT22;12318;51.262;7.066;2023-04-25T00:19:17;6.10;99.90
24162;DHT22;12318;51.262;7.066;2023-04-25T00:21:43;6.10;99.90
24162;DHT22;12318;51.262;7.066;2023-04-25T00:24:15;6.20;99.90
24162;DHT22;12318;51.262;7.066;2023-04-25T00:26:41;6.20;99.90
24162;DHT22;12318;51.262;7.066;2023-04-25T00:29:09;6.10;99.90
24162;DHT22;12318;51.262;7.066;2023-04-25T00:31:35;6.10;99.90
24162;DHT22;12318;51.262;7.066;2023-04-25T00:34:02;6.10;99.90
24162;DHT22;12318;51.262;7.066;2023-04-25T00:36:28;6.10;99.90
24162;DHT22;12318;51.262;7.066;2023-04-25T00:38:53;6.10;99.90
24162;DHT22;12318;51.262;7.066;2023-04-25T00:41:20;6.10;99.90
24162;DHT22;12318;51.262;7.066;2023-04-25T00:43:47;6.00;99.90
24162;DHT22;12318;51.262;7.066;2023-04-25T00:46:13;6.10;99.90
24162;DHT22;12318;51.262;7.066;2023-04-25T00:48:39;6.10;99.90
24162;DHT22;12318;51.262;7.066;2023-04-25T00:51:05;6.10;99.90
24162;DHT22;12318;51.262;7.066;2023-04-25T00:53:32;6.20;99.90
24162;DHT22;12318;51.262;7.066;2023-04-25T00:55:58;6.20;99.90
24162;DHT22;12318;51.262;7.066;2023-04-25T00:58:24;6.20;99.90
24162;DHT22;12318;51.262;7.066;2023-04-25T01:00:51;6.20;99.90
24162;DHT22;12318;51.262;7.066;2023-04-25T01:03:20;6.20;99.90
24162;DHT22;12318;51.262;7.066;2023-04-25T01:05:46;6.20;99.90
24162;DHT22;12318;51.262;7.066;2023-04-25T01:08:13;6.20;99.90
24162;DHT22;12318;51.262;7.066;2023-04-25T01:10:39;6.20;99.90
24162;DHT22;12318;51.262;7.066;2023-04-25T01:13:07;6.20;99.90
24162;DHT22;12318;51.262;7.066;2023-04-25T01:15:33;6.20;99.90
24162;DHT22;12318;51.262;7.066;2023-04-25T01:18:03;6.10;99.90
24162;DHT22;12318;51.262;7.066;2023-04-25T01:20:29;6.20;99.90
24162;DHT22;12318;51.262;7.066;2023-04-25T01:22:57;6.20;99.90
24162;DHT22;12318;51.262;7.066;2023-04-25T01:25:23;6.20;99.90
24162;DHT22;12318;51.262;7.066;2023-04-25T01:27:49;6.10;99.90
24162;DHT22;12318;51.262;7.066;2023-04-25T01:30:15;6.10;99.90
24162;DHT22;12318;51.262;7.066;2023-04-25T01:32:42;6.20;99.90
24162;DHT22;12318;51.262;7.066;2023-04-25T01:35:11;6.20;99.90
24162;DHT22;12318;51.262;7.066;2023-04-25T01:37:39;6.10;99.90
24162;DHT22;12318;51.262;7.066;2023-04-25T01:40:05;6.10;99.90
24162;DHT22;12318;51.262;7.066;2023-04-25T01:42:33;6.10;99.90
24162;DHT22;12318;51.262;7.066;2023-04-25T01:44:59;6.20;99.90
24162;DHT22;12318;51.262;7.066;2023-04-25T01:47:24;6.10;99.90
24162;DHT22;12318;51.262;7.066;2023-04-25T01:49:51;6.10;99.90
24162;DHT22;12318;51.262;7.066;2023-04-25T01:52:16;6.10;99.90
24162;DHT22;12318;51.262;7.066;2023-04-25T01:54:42;6.00;99.90
24162;DHT22;12318;51.262;7.066;2023-04-25T01:57:13;6.10;99.90
24162;DHT22;12318;51.262;7.066;2023-04-25T01:59:39;6.10;99.90
24162;DHT22;12318;51.262;7.066;2023-04-25T02:02:06;6.00;99.90
24162;DHT22;12318;51.262;7.066;2023-04-25T02:04:32;6.00;99.90
24162;DHT22;12318;51.262;7.066;2023-04-25T02:06:58;6.00;99.90
24162;DHT22;12318;51.262;7.066;2023-04-25T02:09:24;6.00;99.90
24162;DHT22;12318;51.262;7.066;2023-04-25T02:11:50;6.00;99.90
24162;DHT22;12318;51.262;7.066;2023-04-25T02:14:16;6.00;99.90
24162;DHT22;12318;51.262;7.066;2023-04-25T02:16:41;6.00;99.90
24162;DHT22;12318;51.262;7.066;2023-04-25T02:19:09;6.00;99.90
24162;DHT22;12318;51.262;7.066;2023-04-25T02:21:36;6.00;99.90
24162;DHT22;12318;51.262;7.066;2023-04-25T02:24:03;6.00;99.90
24162;DHT22;12318;51.262;7.066;2023-04-25T02:26:29;5.90;99.90
24162;DHT22;12318;51.262;7.066;2023-04-25T02:28:56;5.80;99.90
24162;DHT22;12318;51.262;7.066;2023-04-25T02:31:22;5.90;99.90
24162;DHT22;12318;51.262;7.066;2023-04-25T02:33:48;5.80;99.90
24162;DHT22;12318;51.262;7.066;2023-04-25T02:36:14;5.80;99.90
24162;DHT22;12318;51.262;7.066;2023-04-25T02:38:40;5.80;99.90
24162;DHT22;12318;51.262;7.066;2023-04-25T02:41:06;5.80;99.90
24162;DHT22;12318;51.262;7.066;2023-04-25T02:43:33;5.80;99.90
24162;DHT22;12318;51.262;7.066;2023-04-25T02:45:58;5.80;99.90
24162;DHT22;12318;51.262;7.066;2023-04-25T02:48:24;5.80;99.90
24162;DHT22;12318;51.262;7.066;2023-04-25T02:50:50;5.80;99.90
24162;DHT22;12318;51.262;7.066;2023-04-25T02:53:16;5.80;99.90
24162;DHT22;12318;51.262;7.066;2023-04-25T02:55:41;5.80;99.90
24162;DHT22;12318;51.262;7.066;2023-04-25T02:58:07;5.70;99.90
24162;DHT22;12318;51.262;7.066;2023-04-25T03:00:33;5.80;99.90
24162;DHT22;12318;51.262;7.066;2023-04-25T03:02:59;5.70;99.90
24162;DHT22;12318;51.262;7.066;2023-04-25T03:05:25;5.80;99.90
24162;DHT22;12318;51.262;7.066;2023-04-25T03:07:51;5.80;99.90
24162;DHT22;12318;51.262;7.066;2023-04-25T03:10:16;5.80;99.90
24162;DHT22;12318;51.262;7.066;2023-04-25T03:12:42;5.80;99.90
24162;DHT22;12318;51.262;7.066;2023-04-25T03:15:08;5.80;99.90
24162;DHT22;12318;51.262;7.066;2023-04-25T03:17:34;5.80;99.90
24162;DHT22;12318;51.262;7.066;2023-04-25T03:20:00;5.80;99.90
24162;DHT22;12318;51.262;7.066;2023-04-25T03:22:27;5.70;99.90
24162;DHT22;12318;51.262;7.066;2023-04-25T03:24:52;5.70;99.90
24162;DHT22;12318;51.262;7.066;2023-04-25T03:27:18;5.80;99.90
24162;DHT22;12318;51.262;7.066;2023-04-25T03:29:44;5.70;99.90
24162;DHT22;12318;51.262;7.066;2023-04-25T03:32:09;5.70;99.90
24162;DHT22;12318;51.262;7.066;2023-04-25T03:34:35;5.70;99.90
24162;DHT22;12318;51.262;7.066;2023-04-25T03:37:01;5.80;99.90
24162;DHT22;12318;51.262;7.066;2023-04-25T03:39:27;5.70;99.90
24162;DHT22;12318;51.262;7.066;2023-04-25T03:41:52;5.60;99.90
24162;DHT22;12318;51.262;7.066;2023-04-25T03:44:18;5.60;99.90
24162;DHT22;12318;51.262;7.066;2023-04-25T03:46:44;5.70;99.90
24162;DHT22;12318;51.262;7.066;2023-04-25T03:49:10;5.60;99.90
24162;DHT22;12318;51.262;7.066;2023-04-25T03:51:35;5.70;99.90
24162;DHT22;12318;51.262;7.066;2023-04-25T03:54:01;5.60;99.90
24162;DHT22;12318;51.262;7.066;2023-04-25T03:56:27;5.60;99.90
24162;DHT22;12318;51.262;7.066;2023-04-25T03:58:53;5.70;99.90
24162;DHT22;12318;51.262;7.066;2023-04-25T04:01:19;5.60;99.90
24162;DHT22;12318;51.262;7.066;2023-04-25T04:03:45;5.70;99.90
24162;DHT22;12318;51.262;7.066;2023-04-25T04:06:10;5.70;99.90
24162;DHT22;12318;51.262;7.066;2023-04-25T04:08:36;5.60;99.90
24162;DHT22;12318;51.262;7.066;2023-04-25T04:11:02;5.50;99.90
24162;DHT22;12318;51.262;7.066;2023-04-25T04:13:29;5.60;99.90
24162;DHT22;12318;51.262;7.066;2023-04-25T04:15:55;5.50;99.90
24162;DHT22;12318;51.262;7.066;2023-04-25T04:18:22;5.50;99.90
24162;DHT22;12318;51.262;7.066;2023-04-25T04:20:47;5.50;99.90
24162;DHT22;12318;51.262;7.066;2023-04-25T04:23:13;5.40;99.90
24162;DHT22;12318;51.262;7.066;2023-04-25T04:25:39;5.40;99.90
24162;DHT22;12318;51.262;7.066;2023-04-25T04:28:06;5.50;99.90
24162;DHT22;12318;51.262;7.066;2023-04-25T04:30:32;5.50;99.90
24162;DHT22;12318;51.262;7.066;2023-04-25T04:33:02;5.50;99.90
24162;DHT22;12318;51.262;7.066;2023-04-25T04:35:28;5.60;99.90
24162;DHT22;12318;51.262;7.066;2023-04-25T04:37:53;5.50;99.90
24162;DHT22;12318;51.262;7.066;2023-04-25T04:40:20;5.50;99.90
24162;DHT22;12318;51.262;7.066;2023-04-25T04:42:47;5.60;99.90
24162;DHT22;12318;51.262;7.066;2023-04-25T04:45:14;5.50;99.90
24162;DHT22;12318;51.262;7.066;2023-04-25T04:47:40;5.50;99.90
24162;DHT22;12318;51.262;7.066;2023-04-25T04:50:09;5.40;99.90
24162;DHT22;12318;51.262;7.066;2023-04-25T04:52:39;5.40;99.90
24162;DHT22;12318;51.262;7.066;2023-04-25T04:55:05;5.50;99.90
24162;DHT22;12318;51.262;7.066;2023-04-25T04:57:31;5.40;99.90
24162;DHT22;12318;51.262;7.066;2023-04-25T04:59:58;5.50;99.90
24162;DHT22;12318;51.262;7.066;2023-04-25T05:02:25;5.50;99.90
24162;DHT22;12318;51.262;7.066;2023-04-25T05:04:51;5.50;99.90
24162;DHT22;12318;51.262;7.066;2023-04-25T05:07:17;5.50;99.90
24162;DHT22;12318;51.262;7.066;2023-04-25T05:09:43;5.40;99.90
24162;DHT22;12318;51.262;7.066;2023-04-25T05:12:09;5.40;99.90
24162;DHT22;12318;51.262;7.066;2023-04-25T05:14:35;5.40;99.90
24162;DHT22;12318;51.262;7.066;2023-04-25T05:17:01;5.50;99.90
24162;DHT22;12318;51.262;7.066;2023-04-25T05:19:30;5.60;99.90
24162;DHT22;12318;51.262;7.066;2023-04-25T05:21:56;5.50;99.90
24162;DHT22;12318;51.262;7.066;2023-04-25T05:24:21;5.50;99.90
24162;DHT22;12318;51.262;7.066;2023-04-25T05:26:47;5.60;99.90
24162;DHT22;12318;51.262;7.066;2023-04-25T05:29:13;5.60;99.90
24162;DHT22;12318;51.262;7.066;2023-04-25T05:31:39;5.60;99.90
24162;DHT22;12318;51.262;7.066;2023-04-25T05:34:05;5.50;99.90
24162;DHT22;12318;51.262;7.066;2023-04-25T05:36:30;5.60;99.90
24162;DHT22;12318;51.262;7.066;2023-04-25T05:38:57;5.60;99.90
24162;DHT22;12318;51.262;7.066;2023-04-25T05:41:23;5.50;99.90
24162;DHT22;12318;51.262;7.066;2023-04-25T05:43:49;5.60;99.90
24162;DHT22;12318;51.262;7.066;2023-04-25T05:46:15;5.50;99.90
24162;DHT22;12318;51.262;7.066;2023-04-25T05:48:45;5.50;99.90
24162;DHT22;12318;51.262;7.066;2023-04-25T05:51:11;5.50;99.90
24162;DHT22;12318;51.262;7.066;2023-04-25T05:53:37;5.50;99.90
24162;DHT22;12318;51.262;7.066;2023-04-25T05:56:03;5.60;99.90
24162;DHT22;12318;51.262;7.066;2023-04-25T05:58:28;5.50;99.90
24162;DHT22;12318;51.262;7.066;2023-04-25T06:00:57;5.50;99.90
24162;DHT22;12318;51.262;7.066;2023-04-25T06:03:23;5.60;99.90
24162;DHT22;12318;51.262;7.066;2023-04-25T06:05:56;5.70;99.90
24162;DHT22;12318;51.262;7.066;2023-04-25T06:08:28;5.70;99.90
24162;DHT22;12318;51.262;7.066;2023-04-25T06:11:12;5.70;99.90
24162;DHT22;12318;51.262;7.066;2023-04-25T06:14:36;5.70;99.90
24162;DHT22;12318;51.262;7.066;2023-04-25T06:17:04;5.90;99.90
24162;DHT22;12318;51.262;7.066;2023-04-25T06:19:36;6.00;99.90
24162;DHT22;12318;51.262;7.066;2023-04-25T06:22:10;6.10;99.90
24162;DHT22;12318;51.262;7.066;2023-04-25T06:24:42;6.30;99.90
24162;DHT22;12318;51.262;7.066;2023-04-25T06:27:14;6.10;99.90
24162;DHT22;12318;51.262;7.066;2023-04-25T06:29:40;6.10;99.90
24162;DHT22;12318;51.262;7.066;2023-04-25T06:32:05;6.10;99.90
24162;DHT22;12318;51.262;7.066;2023-04-25T06:34:36;6.20;99.90
24162;DHT22;12318;51.262;7.066;2023-04-25T06:37:02;6.30;99.90
24162;DHT22;12318;51.262;7.066;2023-04-25T06:46:20;6.40;99.90
24162;DHT22;12318;51.262;7.066;2023-04-25T06:48:46;6.20;99.90
24162;DHT22;12318;51.262;7.066;2023-04-25T06:51:21;6.20;99.90
24162;DHT22;12318;51.262;7.066;2023-04-25T06:54:12;6.10;99.90
24162;DHT22;12318;51.262;7.066;2023-04-25T07:00:32;6.20;99.90
24162;DHT22;12318;51.262;7.066;2023-04-25T07:02:59;6.40;99.90
24162;DHT22;12318;51.262;7.066;2023-04-25T07:05:51;6.20;99.90
24162;DHT22;12318;51.262;7.066;2023-04-25T07:11:54;6.00;99.90
24162;DHT22;12318;51.262;7.066;2023-04-25T07:21:47;6.40;99.90
24162;DHT22;12318;51.262;7.066;2023-04-25T07:24:31;6.70;99.90
24162;DHT22;12318;51.262;7.066;2023-04-25T07:27:16;6.70;99.90
24162;DHT22;12318;51.262;7.066;2023-04-25T07:30:11;6.90;99.90
24162;DHT22;12318;51.262;7.066;2023-04-25T07:36:15;6.30;99.90
24162;DHT22;12318;51.262;7.066;2023-04-25T07:38:41;6.30;99.90
24162;DHT22;12318;51.262;7.066;2023-04-25T07:41:07;6.10;99.90
24162;DHT22;12318;51.262;7.066;2023-04-25T07:43:33;6.10;99.90
24162;DHT22;12318;51.262;7.066;2023-04-25T07:45:58;6.00;99.90
24162;DHT22;12318;51.262;7.066;2023-04-25T07:48:54;6.30;99.90
24162;DHT22;12318;51.262;7.066;2023-04-25T07:52:00;6.30;99.90
24162;DHT22;12318;51.262;7.066;2023-04-25T07:54:35;6.20;99.90
24162;DHT22;12318;51.262;7.066;2023-04-25T07:57:08;6.30;99.90
24162;DHT22;12318;51.262;7.066;2023-04-25T07:59:56;6.60;99.90
24162;DHT22;12318;51.262;7.066;2023-04-25T08:02:28;6.80;99.90
24162;DHT22;12318;51.262;7.066;2023-04-25T08:05:08;6.60;99.90
24162;DHT22;12318;51.262;7.066;2023-04-25T08:07:47;6.40;99.90
24162;DHT22;12318;51.262;7.066;2023-04-25T08:10:13;6.40;99.90
24162;DHT22;12318;51.262;7.066;2023-04-25T08:12:57;6.30;99.90
24162;DHT22;12318;51.262;7.066;2023-04-25T08:15:23;6.40;99.90
24162;DHT22;12318;51.262;7.066;2023-04-25T08:18:08;6.50;99.90
24162;DHT22;12318;51.262;7.066;2023-04-25T08:20:41;6.30;99.90
24162;DHT22;12318;51.262;7.066;2023-04-25T08:23:45;6.10;99.90
24162;DHT22;12318;51.262;7.066;2023-04-25T08:26:34;6.30;99.90
24162;DHT22;12318;51.262;7.066;2023-04-25T08:29:00;6.80;99.90
24162;DHT22;12318;51.262;7.066;2023-04-25T08:31:31;7.00;99.90
24162;DHT22;12318;51.262;7.066;2023-04-25T08:34:12;7.00;98.70
24162;DHT22;12318;51.262;7.066;2023-04-25T08:36:56;7.40;99.90
24162;DHT22;12318;51.262;7.066;2023-04-25T08:39:58;7.30;98.40
24162;DHT22;12318;51.262;7.066;2023-04-25T08:42:40;7.60;99.40
24162;DHT22;12318;51.262;7.066;2023-04-25T08:45:21;7.50;94.10
24162;DHT22;12318;51.262;7.066;2023-04-25T08:47:56;7.80;92.00
24162;DHT22;12318;51.262;7.066;2023-04-25T08:50:40;7.50;92.70
24162;DHT22;12318;51.262;7.066;2023-04-25T08:53:31;7.70;94.70
24162;DHT22;12318;51.262;7.066;2023-04-25T08:56:28;7.30;93.60
24162;DHT22;12318;51.262;7.066;2023-04-25T08:59:18;7.30;92.20
24162;DHT22;12318;51.262;7.066;2023-04-25T09:02:24;7.40;94.60
24162;DHT22;12318;51.262;7.066;2023-04-25T09:05:16;7.60;96.20
24162;DHT22;12318;51.262;7.066;2023-04-25T09:10:29;7.30;94.10
24162;DHT22;12318;51.262;7.066;2023-04-25T09:25:56;7.80;88.80
24162;DHT22;12318;51.262;7.066;2023-04-25T09:31:27;7.70;91.10
24162;DHT22;12318;51.262;7.066;2023-04-25T09:37:50;7.60;91.60
24162;DHT22;12318;51.262;7.066;2023-04-25T09:40:33;7.70;90.70
24162;DHT22;12318;51.262;7.066;2023-04-25T09:42:59;7.80;91.30
24162;DHT22;12318;51.262;7.066;2023-04-25T09:45:43;8.10;90.40
24162;DHT22;12318;51.262;7.066;2023-04-25T09:48:36;8.20;88.90
24162;DHT22;12318;51.262;7.066;2023-04-25T09:51:12;8.30;90.20
24162;DHT22;12318;51.262;7.066;2023-04-25T09:54:05;8.50;86.00
24162;DHT22;12318;51.262;7.066;2023-04-25T09:56:36;8.20;89.10
24162;DHT22;12318;51.262;7.066;2023-04-25T09:59:03;8.10;89.20
24162;DHT22;12318;51.262;7.066;2023-04-25T10:01:32;8.10;89.70
24162;DHT22;12318;51.262;7.066;2023-04-25T10:04:06;8.10;90.60
24162;DHT22;12318;51.262;7.066;2023-04-25T10:06:38;8.50;88.40
24162;DHT22;12318;51.262;7.066;2023-04-25T10:09:04;8.60;84.30
24162;DHT22;12318;51.262;7.066;2023-04-25T10:11:33;9.20;89.50
24162;DHT22;12318;51.262;7.066;2023-04-25T10:14:00;9.00;75.60
24162;DHT22;12318;51.262;7.066;2023-04-25T10:16:26;9.10;71.30
24162;DHT22;12318;51.262;7.066;2023-04-25T10:18:52;8.50;72.70
24162;DHT22;12318;51.262;7.066;2023-04-25T10:21:19;8.50;78.40
24162;DHT22;12318;51.262;7.066;2023-04-25T10:23:46;8.20;75.50
24162;DHT22;12318;51.262;7.066;2023-04-25T10:26:12;8.10;74.70
24162;DHT22;12318;51.262;7.066;2023-04-25T10:29:00;8.10;76.10
24162;DHT22;12318;51.262;7.066;2023-04-25T10:31:27;8.10;75.00
24162;DHT22;12318;51.262;7.066;2023-04-25T10:33:53;8.20;81.10
24162;DHT22;12318;51.262;7.066;2023-04-25T10:36:20;8.00;77.90
24162;DHT22;12318;51.262;7.066;2023-04-25T10:38:48;8.10;79.20
24162;DHT22;12318;51.262;7.066;2023-04-25T10:41:20;8.10;73.50
24162;DHT22;12318;51.262;7.066;2023-04-25T10:44:01;8.60;71.20
24162;DHT22;12318;51.262;7.066;2023-04-25T10:49:32;8.60;65.20
24162;DHT22;12318;51.262;7.066;2023-04-25T10:54:59;9.10;67.90
24162;DHT22;12318;51.262;7.066;2023-04-25T10:57:40;8.80;70.00
24162;DHT22;12318;51.262;7.066;2023-04-25T11:00:27;9.10;71.20
24162;DHT22;12318;51.262;7.066;2023-04-25T11:03:15;9.10;66.50
24162;DHT22;12318;51.262;7.066;2023-04-25T11:06:00;9.50;70.00
24162;DHT22;12318;51.262;7.066;2023-04-25T11:08:50;10.00;66.60
24162;DHT22;12318;51.262;7.066;2023-04-25T11:11:19;9.90;65.70
24162;DHT22;12318;51.262;7.066;2023-04-25T11:13:49;9.80;67.30
24162;DHT22;12318;51.262;7.066;2023-04-25T11:16:16;10.00;65.20
24162;DHT22;12318;51.262;7.066;2023-04-25T11:18:45;9.40;58.00
24162;DHT22;12318;51.262;7.066;2023-04-25T11:21:11;9.40;58.80
24162;DHT22;12318;51.262;7.066;2023-04-25T11:23:37;9.30;61.40
24162;DHT22;12318;51.262;7.066;2023-04-25T11:26:04;9.10;62.80
24162;DHT22;12318;51.262;7.066;2023-04-25T11:28:30;9.50;62.70
24162;DHT22;12318;51.262;7.066;2023-04-25T11:30:56;9.50;56.90
24162;DHT22;12318;51.262;7.066;2023-04-25T11:33:25;9.40;60.50
24162;DHT22;12318;51.262;7.066;2023-04-25T11:35:55;9.30;57.90
24162;DHT22;12318;51.262;7.066;2023-04-25T11:38:25;9.00;59.20
24162;DHT22;12318;51.262;7.066;2023-04-25T11:40:54;8.70;65.80
24162;DHT22;12318;51.262;7.066;2023-04-25T11:43:21;8.80;62.50
24162;DHT22;12318;51.262;7.066;2023-04-25T11:45:50;8.70;67.80
24162;DHT22;12318;51.262;7.066;2023-04-25T11:48:20;8.40;74.40
24162;DHT22;12318;51.262;7.066;2023-04-25T11:50:45;8.10;78.50
24162;DHT22;12318;51.262;7.066;2023-04-25T11:53:11;8.10;81.70
24162;DHT22;12318;51.262;7.066;2023-04-25T11:55:37;8.00;81.20
24162;DHT22;12318;51.262;7.066;2023-04-25T11:58:04;8.10;82.30
24162;DHT22;12318;51.262;7.066;2023-04-25T12:00:31;8.30;83.70
24162;DHT22;12318;51.262;7.066;2023-04-25T12:02:57;8.20;82.30
24162;DHT22;12318;51.262;7.066;2023-04-25T12:05:25;8.30;83.30
24162;DHT22;12318;51.262;7.066;2023-04-25T12:07:52;8.30;80.40
24162;DHT22;12318;51.262;7.066;2023-04-25T12:10:18;8.20;79.00
24162;DHT22;12318;51.262;7.066;2023-04-25T12:12:48;8.40;77.40
24162;DHT22;12318;51.262;7.066;2023-04-25T12:15:22;8.40;75.20
24162;DHT22;12318;51.262;7.066;2023-04-25T12:17:52;8.20;74.90
24162;DHT22;12318;51.262;7.066;2023-04-25T12:20:20;8.30;77.00
24162;DHT22;12318;51.262;7.066;2023-04-25T12:22:47;8.10;77.50
24162;DHT22;12318;51.262;7.066;2023-04-25T12:25:33;8.40;78.50
24162;DHT22;12318;51.262;7.066;2023-04-25T12:28:16;8.70;82.00
24162;DHT22;12318;51.262;7.066;2023-04-25T12:31:01;8.50;78.00
24162;DHT22;12318;51.262;7.066;2023-04-25T12:33:35;8.50;79.10
24162;DHT22;12318;51.262;7.066;2023-04-25T12:36:03;8.20;81.50
24162;DHT22;12318;51.262;7.066;2023-04-25T12:38:37;7.90;83.50
24162;DHT22;12318;51.262;7.066;2023-04-25T12:41:03;8.00;86.10
24162;DHT22;12318;51.262;7.066;2023-04-25T12:43:29;7.70;81.70
24162;DHT22;12318;51.262;7.066;2023-04-25T12:45:55;7.70;82.10
24162;DHT22;12318;51.262;7.066;2023-04-25T12:48:22;7.60;83.60
24162;DHT22;12318;51.262;7.066;2023-04-25T12:50:49;7.70;85.00
24162;DHT22;12318;51.262;7.066;2023-04-25T12:53:19;7.60;87.90
24162;DHT22;12318;51.262;7.066;2023-04-25T12:55:46;6.90;90.00
24162;DHT22;12318;51.262;7.066;2023-04-25T12:58:13;6.40;95.40
24162;DHT22;12318;51.262;7.066;2023-04-25T13:00:39;6.30;99.30
24162;DHT22;12318;51.262;7.066;2023-04-25T13:03:05;6.60;99.90
24162;DHT22;12318;51.262;7.066;2023-04-25T13:05:31;6.80;99.90
24162;DHT22;12318;51.262;7.066;2023-04-25T13:07:56;6.90;99.90
24162;DHT22;12318;51.262;7.066;2023-04-25T13:10:23;7.00;99.90
24162;DHT22;12318;51.262;7.066;2023-04-25T13:12:48;6.90;99.90
24162;DHT22;12318;51.262;7.066;2023-04-25T13:15:14;7.30;99.90
24162;DHT22;12318;51.262;7.066;2023-04-25T13:17:41;7.40;99.90
24162;DHT22;12318;51.262;7.066;2023-04-25T13:20:08;7.40;98.30
24162;DHT22;12318;51.262;7.066;2023-04-25T13:22:38;7.60;98.70
24162;DHT22;12318;51.262;7.066;2023-04-25T13:25:06;8.00;99.90
24162;DHT22;12318;51.262;7.066;2023-04-25T13:27:33;8.10;95.00
24162;DHT22;12318;51.262;7.066;2023-04-25T13:30:04;7.90;91.70
24162;DHT22;12318;51.262;7.066;2023-04-25T13:32:36;8.10;90.10
24162;DHT22;12318;51.262;7.066;2023-04-25T13:35:04;8.50;91.50
24162;DHT22;12318;51.262;7.066;2023-04-25T13:37:30;8.90;87.70
24162;DHT22;12318;51.262;7.066;2023-04-25T13:40:08;9.40;85.20
24162;DHT22;12318;51.262;7.066;2023-04-25T13:42:36;9.70;80.00
24162;DHT22;12318;51.262;7.066;2023-04-25T13:45:02;9.70;80.00
24162;DHT22;12318;51.262;7.066;2023-04-25T13:47:29;9.40;79.70
24162;DHT22;12318;51.262;7.066;2023-04-25T13:49:56;8.90;79.50
24162;DHT22;12318;51.262;7.066;2023-04-25T13:52:22;8.40;78.80
24162;DHT22;12318;51.262;7.066;2023-04-25T13:54:49;8.40;79.60
24162;DHT22;12318;51.262;7.066;2023-04-25T13:57:16;8.30;91.00
24162;DHT22;12318;51.262;7.066;2023-04-25T13:59:43;7.30;99.90
24162;DHT22;12318;51.262;7.066;2023-04-25T14:02:08;6.50;99.90
24162;DHT22;12318;51.262;7.066;2023-04-25T14:04:34;6.20;99.90
24162;DHT22;12318;51.262;7.066;2023-04-25T14:07:00;6.10;99.90
24162;DHT22;12318;51.262;7.066;2023-04-25T14:09:27;6.30;99.90
24162;DHT22;12318;51.262;7.066;2023-04-25T14:11:54;6.40;99.90
24162;DHT22;12318;51.262;7.066;2023-04-25T14:14:20;6.40;99.90
24162;DHT22;12318;51.262;7.066;2023-04-25T14:16:56;6.60;99.90
24162;DHT22;12318;51.262;7.066;2023-04-25T14:19:49;6.80;99.90
24162;DHT22;12318;51.262;7.066;2023-04-25T14:22:55;6.80;99.90
24162;DHT22;12318;51.262;7.066;2023-04-25T14:28:13;6.90;99.90
24162;DHT22;12318;51.262;7.066;2023-04-25T14:30:42;7.10;99.90
24162;DHT22;12318;51.262;7.066;2023-04-25T14:33:08;7.40;99.90
24162;DHT22;12318;51.262;7.066;2023-04-25T14:35:34;7.70;99.90
24162;DHT22;12318;51.262;7.066;2023-04-25T14:38:00;7.50;99.90
24162;DHT22;12318;51.262;7.066;2023-04-25T14:40:26;7.80;99.90
24162;DHT22;12318;51.262;7.066;2023-04-25T14:42:52;7.80;99.90
24162;DHT22;12318;51.262;7.066;2023-04-25T14:45:18;8.20;99.90
24162;DHT22;12318;51.262;7.066;2023-04-25T14:47:43;8.00;99.90
24162;DHT22;12318;51.262;7.066;2023-04-25T14:50:09;7.70;99.90
24162;DHT22;12318;51.262;7.066;2023-04-25T14:52:36;7.90;99.90
24162;DHT22;12318;51.262;7.066;2023-04-25T14:55:02;7.70;99.90
24162;DHT22;12318;51.262;7.066;2023-04-25T14:57:32;7.90;99.90
24162;DHT22;12318;51.262;7.066;2023-04-25T14:59:57;8.00;99.90
24162;DHT22;12318;51.262;7.066;2023-04-25T15:02:27;8.00;99.90
24162;DHT22;12318;51.262;7.066;2023-04-25T15:04:53;8.30;99.90
24162;DHT22;12318;51.262;7.066;2023-04-25T15:07:19;8.60;99.90
24162;DHT22;12318;51.262;7.066;2023-04-25T15:09:47;9.10;99.90
24162;DHT22;12318;51.262;7.066;2023-04-25T15:12:13;9.00;98.70
24162;DHT22;12318;51.262;7.066;2023-04-25T15:14:41;9.20;97.30
24162;DHT22;12318;51.262;7.066;2023-04-25T15:17:07;9.20;96.70
24162;DHT22;12318;51.262;7.066;2023-04-25T15:19:32;9.00;94.60
24162;DHT22;12318;51.262;7.066;2023-04-25T15:21:58;9.00;96.50
24162;DHT22;12318;51.262;7.066;2023-04-25T15:24:27;9.00;97.90
24162;DHT22;12318;51.262;7.066;2023-04-25T15:26:52;8.80;94.50
24162;DHT22;12318;51.262;7.066;2023-04-25T15:29:18;8.80;95.70
24162;DHT22;12318;51.262;7.066;2023-04-25T15:31:44;8.80;97.80
24162;DHT22;12318;51.262;7.066;2023-04-25T15:34:13;8.70;96.50
24162;DHT22;12318;51.262;7.066;2023-04-25T15:36:38;8.60;91.50
24162;DHT22;12318;51.262;7.066;2023-04-25T15:39:04;8.60;91.20
24162;DHT22;12318;51.262;7.066;2023-04-25T15:41:30;8.30;86.70
24162;DHT22;12318;51.262;7.066;2023-04-25T15:43:59;8.30;87.10
24162;DHT22;12318;51.262;7.066;2023-04-25T15:46:28;8.30;91.50
24162;DHT22;12318;51.262;7.066;2023-04-25T15:48:56;8.30;91.50
24162;DHT22;12318;51.262;7.066;2023-04-25T15:51:30;8.40;92.60
24162;DHT22;12318;51.262;7.066;2023-04-25T15:53:56;8.40;91.50
24162;DHT22;12318;51.262;7.066;2023-04-25T15:57:15;8.50;88.50
24162;DHT22;12318;51.262;7.066;2023-04-25T16:14:35;8.60;82.00
24162;DHT22;12318;51.262;7.066;2023-04-25T16:25:06;9.10;78.20
24162;DHT22;12318;51.262;7.066;2023-04-25T16:28:09;8.70;76.20
24162;DHT22;12318;51.262;7.066;2023-04-25T16:31:01;8.40;76.20
24162;DHT22;12318;51.262;7.066;2023-04-25T16:33:26;8.40;77.70
24162;DHT22;12318;51.262;7.066;2023-04-25T16:35:52;8.10;77.10
24162;DHT22;12318;51.262;7.066;2023-04-25T16:38:18;8.00;74.10
24162;DHT22;12318;51.262;7.066;2023-04-25T16:40:44;8.00;75.50
24162;DHT22;12318;51.262;7.066;2023-04-25T16:43:09;8.00;77.70
24162;DHT22;12318;51.262;7.066;2023-04-25T16:45:35;8.00;75.60
24162;DHT22;12318;51.262;7.066;2023-04-25T16:48:01;8.00;76.40
24162;DHT22;12318;51.262;7.066;2023-04-25T16:50:27;8.00;74.10
24162;DHT22;12318;51.262;7.066;2023-04-25T16:52:52;8.10;74.60
24162;DHT22;12318;51.262;7.066;2023-04-25T16:55:19;8.20;77.90
24162;DHT22;12318;51.262;7.066;2023-04-25T16:57:44;8.20;75.90
24162;DHT22;12318;51.262;7.066;2023-04-25T17:00:11;8.20;73.60
24162;DHT22;12318;51.262;7.066;2023-04-25T17:02:37;8.10;75.10
24162;DHT22;12318;51.262;7.066;2023-04-25T17:05:03;8.00;77.30
24162;DHT22;12318;51.262;7.066;2023-04-25T17:07:29;8.00;78.50
24162;DHT22;12318;51.262;7.066;2023-04-25T17:09:55;8.00;74.70
24162;DHT22;12318;51.262;7.066;2023-04-25T17:12:21;8.00;76.50
24162;DHT22;12318;51.262;7.066;2023-04-25T17:14:48;8.00;73.80
24162;DHT22;12318;51.262;7.066;2023-04-25T17:17:14;8.10;75.60
24162;DHT22;12318;51.262;7.066;2023-04-25T17:19:39;8.00;75.50
24162;DHT22;12318;51.262;7.066;2023-04-25T17:22:07;8.00;73.00